sensor_id;sensor_type;location;lat;lon;timestamp;P1;durP1;ratioP1;P2;durP2;ratioP2
38037;SDS011;23843;51.320;12.340;2024-01-30T00:02:08;0.20;;;0.20;;
38037;SDS011;23843;51.320;12.340;2024-01-30T00:04:33;0.50;;;0.13;;
38037;SDS011;23843;51.320;12.340;2024-01-30T00:06:58;0.23;;;0.23;;
38037;SDS011;23843;51.320;12.340;2024-01-30T00:09:24;0.40;;;0.40;;
38037;SDS011;23843;51.320;12.340;2024-01-30T00:11:51;0.50;;;0.50;;
38037;SDS011;23843;51.320;12.340;2024-01-30T00:14:16;0.60;;;0.40;;
38037;SDS011;23843;51.320;12.340;2024-01-30T00:16:42;0.47;;;0.30;;
38037;SDS011;23843;51.320;12.340;2024-01-30T00:19:07;0.30;;;0.30;;
38037;SDS011;23843;51.320;12.340;2024-01-30T00:21:33;0.30;;;0.20;;
38037;SDS011;23843;51.320;12.340;2024-01-30T00:23:58;0.40;;;0.40;;
38037;SDS011;23843;51.320;12.340;2024-01-30T00:26:23;0.40;;;0.40;;
38037;SDS011;23843;51.320;12.340;2024-01-30T00:28:50;0.80;;;0.50;;
38037;SDS011;23843;51.320;12.340;2024-01-30T00:31:16;0.30;;;0.30;;
38037;SDS011;23843;51.320;12.340;2024-01-30T00:33:41;0.90;;;0.60;;
38037;SDS011;23843;51.320;12.340;2024-01-30T00:36:07;0.97;;;0.87;;
38037;SDS011;23843;51.320;12.340;2024-01-30T00:38:33;1.27;;;0.83;;
38037;SDS011;23843;51.320;12.340;2024-01-30T00:40:59;1.30;;;0.80;;
38037;SDS011;23843;51.320;12.340;2024-01-30T00:43:25;0.90;;;0.70;;
38037;SDS011;23843;51.320;12.340;2024-01-30T00:45:51;1.23;;;0.73;;
38037;SDS011;23843;51.320;12.340;2024-01-30T00:48:17;0.60;;;0.53;;
38037;SDS011;23843;51.320;12.340;2024-01-30T00:50:42;1.40;;;1.13;;
38037;SDS011;23843;51.320;12.340;2024-01-30T00:53:08;2.30;;;1.37;;
38037;SDS011;23843;51.320;12.340;2024-01-30T00:55:33;1.93;;;1.00;;
38037;SDS011;23843;51.320;12.340;2024-01-30T00:57:59;1.40;;;0.77;;
38037;SDS011;23843;51.320;12.340;2024-01-30T01:00:24;0.97;;;0.70;;
38037;SDS011;23843;51.320;12.340;2024-01-30T01:02:51;1.00;;;0.80;;
38037;SDS011;23843;51.320;12.340;2024-01-30T01:05:16;1.10;;;0.50;;
38037;SDS011;23843;51.320;12.340;2024-01-30T01:07:42;1.03;;;0.60;;
38037;SDS011;23843;51.320;12.340;2024-01-30T01:10:07;1.87;;;0.77;;
38037;SDS011;23843;51.320;12.340;2024-01-30T01:12:33;1.00;;;0.80;;
38037;SDS011;23843;51.320;12.340;2024-01-30T01:14:58;2.13;;;1.10;;
38037;SDS011;23843;51.320;12.340;2024-01-30T01:17:24;3.03;;;1.10;;
38037;SDS011;23843;51.320;12.340;2024-01-30T01:19:51;0.50;;;0.50;;
38037;SDS011;23843;51.320;12.340;2024-01-30T01:22:16;0.53;;;0.50;;
38037;SDS011;23843;51.320;12.340;2024-01-30T01:24:41;1.27;;;0.70;;
38037;SDS011;23843;51.320;12.340;2024-01-30T01:27:07;0.93;;;0.50;;
38037;SDS011;23843;51.320;12.340;2024-01-30T01:29:32;1.00;;;0.60;;
38037;SDS011;23843;51.320;12.340;2024-01-30T01:31:58;1.10;;;0.70;;
38037;SDS011;23843;51.320;12.340;2024-01-30T01:34:24;1.93;;;1.20;;
38037;SDS011;23843;51.320;12.340;2024-01-30T01:36:50;2.03;;;0.80;;
38037;SDS011;23843;51.320;12.340;2024-01-30T01:39:16;2.33;;;1.20;;
38037;SDS011;23843;51.320;12.340;2024-01-30T01:41:42;1.43;;;0.90;;
38037;SDS011;23843;51.320;12.340;2024-01-30T01:44:07;1.67;;;1.10;;
38037;SDS011;23843;51.320;12.340;2024-01-30T01:46:33;1.00;;;0.67;;
38037;SDS011;23843;51.320;12.340;2024-01-30T01:48:59;1.93;;;0.90;;
38037;SDS011;23843;51.320;12.340;2024-01-30T01:51:27;1.10;;;0.80;;
38037;SDS011;23843;51.320;12.340;2024-01-30T01:53:54;2.20;;;1.20;;
38037;SDS011;23843;51.320;12.340;2024-01-30T01:56:21;1.80;;;1.10;;
38037;SDS011;23843;51.320;12.340;2024-01-30T01:58:47;1.20;;;0.87;;
38037;SDS011;23843;51.320;12.340;2024-01-30T02:01:14;3.73;;;1.00;;
38037;SDS011;23843;51.320;12.340;2024-01-30T02:03:43;1.73;;;0.90;;
38037;SDS011;23843;51.320;12.340;2024-01-30T02:06:10;1.10;;;0.90;;
38037;SDS011;23843;51.320;12.340;2024-01-30T02:08:36;1.13;;;0.60;;
38037;SDS011;23843;51.320;12.340;2024-01-30T02:11:04;0.93;;;0.50;;
38037;SDS011;23843;51.320;12.340;2024-01-30T02:13:29;0.80;;;0.60;;
38037;SDS011;23843;51.320;12.340;2024-01-30T02:15:55;0.97;;;0.50;;
38037;SDS011;23843;51.320;12.340;2024-01-30T02:18:20;0.93;;;0.70;;
38037;SDS011;23843;51.320;12.340;2024-01-30T02:20:46;1.13;;;0.60;;
38037;SDS011;23843;51.320;12.340;2024-01-30T02:23:13;0.50;;;0.50;;
38037;SDS011;23843;51.320;12.340;2024-01-30T02:25:41;0.57;;;0.40;;
38037;SDS011;23843;51.320;12.340;2024-01-30T02:28:07;0.63;;;0.30;;
38037;SDS011;23843;51.320;12.340;2024-01-30T02:30:33;0.43;;;0.40;;
38037;SDS011;23843;51.320;12.340;2024-01-30T02:32:58;1.03;;;0.70;;
38037;SDS011;23843;51.320;12.340;2024-01-30T02:35:23;1.30;;;0.63;;
38037;SDS011;23843;51.320;12.340;2024-01-30T02:37:49;0.83;;;0.60;;
38037;SDS011;23843;51.320;12.340;2024-01-30T02:40:16;0.80;;;0.40;;
38037;SDS011;23843;51.320;12.340;2024-01-30T02:42:41;0.40;;;0.33;;
38037;SDS011;23843;51.320;12.340;2024-01-30T02:45:07;1.13;;;0.73;;
38037;SDS011;23843;51.320;12.340;2024-01-30T02:47:33;2.20;;;0.87;;
38037;SDS011;23843;51.320;12.340;2024-01-30T02:49:59;1.23;;;0.80;;
38037;SDS011;23843;51.320;12.340;2024-01-30T02:52:24;0.60;;;0.60;;
38037;SDS011;23843;51.320;12.340;2024-01-30T02:54:50;0.80;;;0.60;;
38037;SDS011;23843;51.320;12.340;2024-01-30T02:57:17;1.33;;;0.60;;
38037;SDS011;23843;51.320;12.340;2024-01-30T02:59:42;1.37;;;0.80;;
38037;SDS011;23843;51.320;12.340;2024-01-30T03:02:08;0.97;;;0.60;;
38037;SDS011;23843;51.320;12.340;2024-01-30T03:04:33;0.73;;;0.70;;
38037;SDS011;23843;51.320;12.340;2024-01-30T03:06:58;2.50;;;1.00;;
38037;SDS011;23843;51.320;12.340;2024-01-30T03:09:24;1.30;;;0.80;;
38037;SDS011;23843;51.320;12.340;2024-01-30T03:11:49;1.00;;;0.90;;
38037;SDS011;23843;51.320;12.340;2024-01-30T03:14:16;2.20;;;0.80;;
38037;SDS011;23843;51.320;12.340;2024-01-30T03:16:41;0.80;;;0.50;;
38037;SDS011;23843;51.320;12.340;2024-01-30T03:19:07;2.27;;;1.50;;
38037;SDS011;23843;51.320;12.340;2024-01-30T03:21:32;2.03;;;1.40;;
38037;SDS011;23843;51.320;12.340;2024-01-30T03:23:58;1.33;;;0.73;;
38037;SDS011;23843;51.320;12.340;2024-01-30T03:26:23;2.00;;;1.20;;
38037;SDS011;23843;51.320;12.340;2024-01-30T03:28:49;1.30;;;0.70;;
38037;SDS011;23843;51.320;12.340;2024-01-30T03:31:16;1.10;;;0.60;;
38037;SDS011;23843;51.320;12.340;2024-01-30T03:33:41;0.50;;;0.50;;
38037;SDS011;23843;51.320;12.340;2024-01-30T03:36:07;0.90;;;0.73;;
38037;SDS011;23843;51.320;12.340;2024-01-30T03:38:33;0.57;;;0.50;;
38037;SDS011;23843;51.320;12.340;2024-01-30T03:40:59;0.67;;;0.50;;
38037;SDS011;23843;51.320;12.340;2024-01-30T03:43:24;2.30;;;1.50;;
38037;SDS011;23843;51.320;12.340;2024-01-30T03:45:50;3.50;;;1.90;;
38037;SDS011;23843;51.320;12.340;2024-01-30T03:48:17;2.83;;;1.70;;
38037;SDS011;23843;51.320;12.340;2024-01-30T03:50:42;2.07;;;1.20;;
38037;SDS011;23843;51.320;12.340;2024-01-30T03:53:07;3.10;;;1.80;;
38037;SDS011;23843;51.320;12.340;2024-01-30T03:55:33;2.13;;;1.10;;
38037;SDS011;23843;51.320;12.340;2024-01-30T03:57:58;2.97;;;1.70;;
38037;SDS011;23843;51.320;12.340;2024-01-30T04:00:24;3.37;;;2.10;;
38037;SDS011;23843;51.320;12.340;2024-01-30T04:02:49;3.37;;;1.60;;
38037;SDS011;23843;51.320;12.340;2024-01-30T04:05:16;2.07;;;1.50;;
38037;SDS011;23843;51.320;12.340;2024-01-30T04:07:42;2.40;;;1.50;;
38037;SDS011;23843;51.320;12.340;2024-01-30T04:10:07;2.93;;;1.47;;
38037;SDS011;23843;51.320;12.340;2024-01-30T04:12:33;1.03;;;0.73;;
38037;SDS011;23843;51.320;12.340;2024-01-30T04:14:58;1.83;;;1.10;;
38037;SDS011;23843;51.320;12.340;2024-01-30T04:17:24;2.13;;;1.40;;
38037;SDS011;23843;51.320;12.340;2024-01-30T04:19:49;2.27;;;1.50;;
38037;SDS011;23843;51.320;12.340;2024-01-30T04:22:16;2.10;;;1.10;;
38037;SDS011;23843;51.320;12.340;2024-01-30T04:24:42;1.70;;;1.03;;
38037;SDS011;23843;51.320;12.340;2024-01-30T04:27:07;1.93;;;1.00;;
38037;SDS011;23843;51.320;12.340;2024-01-30T04:29:32;2.40;;;1.17;;
38037;SDS011;23843;51.320;12.340;2024-01-30T04:31:58;1.33;;;0.97;;
38037;SDS011;23843;51.320;12.340;2024-01-30T04:34:23;1.73;;;0.93;;
38037;SDS011;23843;51.320;12.340;2024-01-30T04:36:49;1.40;;;0.80;;
38037;SDS011;23843;51.320;12.340;2024-01-30T04:39:16;1.00;;;0.57;;
38037;SDS011;23843;51.320;12.340;2024-01-30T04:41:41;0.90;;;0.60;;
38037;SDS011;23843;51.320;12.340;2024-01-30T04:44:07;1.07;;;0.73;;
38037;SDS011;23843;51.320;12.340;2024-01-30T04:46:32;1.27;;;0.60;;
38037;SDS011;23843;51.320;12.340;2024-01-30T04:48:58;1.20;;;0.77;;
38037;SDS011;23843;51.320;12.340;2024-01-30T04:51:23;1.97;;;1.13;;
38037;SDS011;23843;51.320;12.340;2024-01-30T04:53:49;1.40;;;1.00;;
38037;SDS011;23843;51.320;12.340;2024-01-30T04:56:15;3.03;;;1.70;;
38037;SDS011;23843;51.320;12.340;2024-01-30T04:58:41;3.03;;;1.40;;
38037;SDS011;23843;51.320;12.340;2024-01-30T05:01:06;1.57;;;1.13;;
38037;SDS011;23843;51.320;12.340;2024-01-30T05:03:33;2.87;;;1.30;;
38037;SDS011;23843;51.320;12.340;2024-01-30T05:05:58;1.73;;;1.10;;
38037;SDS011;23843;51.320;12.340;2024-01-30T05:08:24;1.33;;;0.90;;
38037;SDS011;23843;51.320;12.340;2024-01-30T05:10:49;2.17;;;1.40;;
38037;SDS011;23843;51.320;12.340;2024-01-30T05:13:16;2.57;;;1.40;;
38037;SDS011;23843;51.320;12.340;2024-01-30T05:15:42;1.83;;;1.10;;
38037;SDS011;23843;51.320;12.340;2024-01-30T05:18:07;1.10;;;0.90;;
38037;SDS011;23843;51.320;12.340;2024-01-30T05:20:32;1.63;;;0.83;;
38037;SDS011;23843;51.320;12.340;2024-01-30T05:22:58;0.83;;;0.60;;
38037;SDS011;23843;51.320;12.340;2024-01-30T05:25:23;0.83;;;0.70;;
38037;SDS011;23843;51.320;12.340;2024-01-30T05:27:49;1.43;;;0.90;;
38037;SDS011;23843;51.320;12.340;2024-01-30T05:30:16;3.43;;;1.40;;
38037;SDS011;23843;51.320;12.340;2024-01-30T05:32:42;2.20;;;1.50;;
38037;SDS011;23843;51.320;12.340;2024-01-30T05:35:08;3.50;;;1.87;;
38037;SDS011;23843;51.320;12.340;2024-01-30T05:37:33;2.43;;;1.30;;
38037;SDS011;23843;51.320;12.340;2024-01-30T05:39:59;1.30;;;1.03;;
38037;SDS011;23843;51.320;12.340;2024-01-30T05:42:24;1.37;;;1.10;;
38037;SDS011;23843;51.320;12.340;2024-01-30T05:44:50;1.37;;;0.80;;
38037;SDS011;23843;51.320;12.340;2024-01-30T05:47:17;1.40;;;0.90;;
38037;SDS011;23843;51.320;12.340;2024-01-30T05:49:43;2.47;;;1.60;;
38037;SDS011;23843;51.320;12.340;2024-01-30T05:52:08;2.60;;;1.50;;
38037;SDS011;23843;51.320;12.340;2024-01-30T05:54:34;2.47;;;1.30;;
38037;SDS011;23843;51.320;12.340;2024-01-30T05:56:59;3.13;;;1.30;;
38037;SDS011;23843;51.320;12.340;2024-01-30T05:59:25;1.30;;;0.80;;
38037;SDS011;23843;51.320;12.340;2024-01-30T06:01:50;0.83;;;0.63;;
38037;SDS011;23843;51.320;12.340;2024-01-30T06:04:17;1.10;;;0.70;;
38037;SDS011;23843;51.320;12.340;2024-01-30T06:06:42;2.63;;;1.30;;
38037;SDS011;23843;51.320;12.340;2024-01-30T06:09:08;1.13;;;0.80;;
38037;SDS011;23843;51.320;12.340;2024-01-30T06:11:33;1.30;;;0.87;;
38037;SDS011;23843;51.320;12.340;2024-01-30T06:13:59;1.30;;;0.80;;
38037;SDS011;23843;51.320;12.340;2024-01-30T06:16:24;0.93;;;0.47;;
38037;SDS011;23843;51.320;12.340;2024-01-30T06:18:50;1.60;;;1.10;;
38037;SDS011;23843;51.320;12.340;2024-01-30T06:21:17;6.03;;;3.07;;
38037;SDS011;23843;51.320;12.340;2024-01-30T06:23:42;4.87;;;2.73;;
38037;SDS011;23843;51.320;12.340;2024-01-30T06:26:08;4.13;;;2.27;;
38037;SDS011;23843;51.320;12.340;2024-01-30T06:28:33;3.97;;;2.00;;
38037;SDS011;23843;51.320;12.340;2024-01-30T06:31:00;2.70;;;1.53;;
38037;SDS011;23843;51.320;12.340;2024-01-30T06:33:26;1.77;;;1.07;;
38037;SDS011;23843;51.320;12.340;2024-01-30T06:35:51;3.27;;;1.77;;
38037;SDS011;23843;51.320;12.340;2024-01-30T06:38:18;1.50;;;1.17;;
38037;SDS011;23843;51.320;12.340;2024-01-30T06:40:43;2.60;;;1.07;;
38037;SDS011;23843;51.320;12.340;2024-01-30T06:43:09;1.33;;;0.73;;
38037;SDS011;23843;51.320;12.340;2024-01-30T06:45:35;1.30;;;1.20;;
38037;SDS011;23843;51.320;12.340;2024-01-30T06:48:04;0.93;;;0.73;;
38037;SDS011;23843;51.320;12.340;2024-01-30T06:50:30;0.60;;;0.50;;
38037;SDS011;23843;51.320;12.340;2024-01-30T06:52:55;0.87;;;0.43;;
38037;SDS011;23843;51.320;12.340;2024-01-30T06:55:22;1.30;;;0.90;;
38037;SDS011;23843;51.320;12.340;2024-01-30T06:57:48;4.53;;;2.50;;
38037;SDS011;23843;51.320;12.340;2024-01-30T07:00:14;5.33;;;3.20;;
38037;SDS011;23843;51.320;12.340;2024-01-30T07:02:40;3.63;;;1.77;;
38037;SDS011;23843;51.320;12.340;2024-01-30T07:05:06;3.17;;;1.80;;
38037;SDS011;23843;51.320;12.340;2024-01-30T07:07:35;4.13;;;1.80;;
38037;SDS011;23843;51.320;12.340;2024-01-30T07:10:01;2.03;;;1.57;;
38037;SDS011;23843;51.320;12.340;2024-01-30T07:12:28;2.70;;;1.50;;
38037;SDS011;23843;51.320;12.340;2024-01-30T07:14:55;2.57;;;1.47;;
38037;SDS011;23843;51.320;12.340;2024-01-30T07:17:21;2.83;;;1.60;;
38037;SDS011;23843;51.320;12.340;2024-01-30T07:19:46;1.97;;;1.30;;
38037;SDS011;23843;51.320;12.340;2024-01-30T07:22:12;2.80;;;1.80;;
38037;SDS011;23843;51.320;12.340;2024-01-30T07:24:41;4.10;;;2.07;;
38037;SDS011;23843;51.320;12.340;2024-01-30T07:27:07;3.40;;;1.87;;
38037;SDS011;23843;51.320;12.340;2024-01-30T07:29:34;1.90;;;1.10;;
38037;SDS011;23843;51.320;12.340;2024-01-30T07:32:00;2.73;;;1.63;;
38037;SDS011;23843;51.320;12.340;2024-01-30T07:34:25;2.33;;;1.10;;
38037;SDS011;23843;51.320;12.340;2024-01-30T07:36:51;3.70;;;2.00;;
38037;SDS011;23843;51.320;12.340;2024-01-30T07:39:16;2.13;;;1.50;;
38037;SDS011;23843;51.320;12.340;2024-01-30T07:41:41;2.33;;;1.50;;
38037;SDS011;23843;51.320;12.340;2024-01-30T07:44:07;3.60;;;2.10;;
38037;SDS011;23843;51.320;12.340;2024-01-30T07:46:34;5.63;;;2.10;;
38037;SDS011;23843;51.320;12.340;2024-01-30T07:48:59;2.50;;;1.60;;
38037;SDS011;23843;51.320;12.340;2024-01-30T07:51:25;2.50;;;1.40;;
38037;SDS011;23843;51.320;12.340;2024-01-30T07:53:50;3.63;;;1.87;;
38037;SDS011;23843;51.320;12.340;2024-01-30T07:56:15;2.37;;;1.40;;
38037;SDS011;23843;51.320;12.340;2024-01-30T07:58:41;1.63;;;1.10;;
38037;SDS011;23843;51.320;12.340;2024-01-30T08:01:06;2.40;;;1.77;;
38037;SDS011;23843;51.320;12.340;2024-01-30T08:03:33;3.50;;;1.90;;
38037;SDS011;23843;51.320;12.340;2024-01-30T08:05:59;3.17;;;1.83;;
38037;SDS011;23843;51.320;12.340;2024-01-30T08:08:24;2.70;;;1.60;;
38037;SDS011;23843;51.320;12.340;2024-01-30T08:10:49;2.13;;;1.40;;
38037;SDS011;23843;51.320;12.340;2024-01-30T08:13:15;2.47;;;1.43;;
38037;SDS011;23843;51.320;12.340;2024-01-30T08:15:40;3.30;;;1.80;;
38037;SDS011;23843;51.320;12.340;2024-01-30T08:18:06;3.13;;;2.20;;
38037;SDS011;23843;51.320;12.340;2024-01-30T08:20:33;2.83;;;2.00;;
38037;SDS011;23843;51.320;12.340;2024-01-30T08:22:58;3.10;;;1.47;;
38037;SDS011;23843;51.320;12.340;2024-01-30T08:25:24;2.23;;;1.23;;
38037;SDS011;23843;51.320;12.340;2024-01-30T08:27:49;1.90;;;0.97;;
38037;SDS011;23843;51.320;12.340;2024-01-30T08:30:15;1.27;;;0.93;;
38037;SDS011;23843;51.320;12.340;2024-01-30T08:32:40;1.70;;;1.20;;
38037;SDS011;23843;51.320;12.340;2024-01-30T08:35:06;3.33;;;1.73;;
38037;SDS011;23843;51.320;12.340;2024-01-30T08:37:33;2.23;;;1.50;;
38037;SDS011;23843;51.320;12.340;2024-01-30T08:39:59;2.40;;;1.63;;
38037;SDS011;23843;51.320;12.340;2024-01-30T08:42:24;1.70;;;1.00;;
38037;SDS011;23843;51.320;12.340;2024-01-30T08:44:49;1.47;;;0.83;;
38037;SDS011;23843;51.320;12.340;2024-01-30T08:47:15;2.60;;;1.00;;
38037;SDS011;23843;51.320;12.340;2024-01-30T08:49:40;1.53;;;1.00;;
38037;SDS011;23843;51.320;12.340;2024-01-30T08:52:06;1.93;;;1.23;;
38037;SDS011;23843;51.320;12.340;2024-01-30T08:54:33;2.37;;;1.60;;
38037;SDS011;23843;51.320;12.340;2024-01-30T08:56:58;2.43;;;1.50;;
38037;SDS011;23843;51.320;12.340;2024-01-30T08:59:24;1.90;;;1.47;;
38037;SDS011;23843;51.320;12.340;2024-01-30T09:01:49;1.30;;;1.20;;
38037;SDS011;23843;51.320;12.340;2024-01-30T09:04:14;3.00;;;1.83;;
38037;SDS011;23843;51.320;12.340;2024-01-30T09:06:40;1.87;;;1.37;;
38037;SDS011;23843;51.320;12.340;2024-01-30T09:09:05;2.27;;;1.40;;
38037;SDS011;23843;51.320;12.340;2024-01-30T09:11:32;2.17;;;1.50;;
38037;SDS011;23843;51.320;12.340;2024-01-30T09:13:57;2.13;;;1.53;;
38037;SDS011;23843;51.320;12.340;2024-01-30T09:16:23;2.30;;;1.50;;
38037;SDS011;23843;51.320;12.340;2024-01-30T09:18:48;1.37;;;0.93;;
38037;SDS011;23843;51.320;12.340;2024-01-30T09:21:14;2.93;;;1.30;;
38037;SDS011;23843;51.320;12.340;2024-01-30T09:23:39;3.07;;;2.00;;
38037;SDS011;23843;51.320;12.340;2024-01-30T09:26:05;4.10;;;2.30;;
38037;SDS011;23843;51.320;12.340;2024-01-30T09:28:32;2.37;;;1.40;;
38037;SDS011;23843;51.320;12.340;2024-01-30T09:30:57;1.93;;;1.40;;
38037;SDS011;23843;51.320;12.340;2024-01-30T09:33:22;3.17;;;2.07;;
38037;SDS011;23843;51.320;12.340;2024-01-30T09:35:48;2.60;;;1.53;;
38037;SDS011;23843;51.320;12.340;2024-01-30T09:38:13;2.07;;;1.40;;
38037;SDS011;23843;51.320;12.340;2024-01-30T09:40:39;1.43;;;1.00;;
38037;SDS011;23843;51.320;12.340;2024-01-30T09:43:04;1.53;;;0.90;;
38037;SDS011;23843;51.320;12.340;2024-01-30T09:45:31;1.07;;;0.90;;
38037;SDS011;23843;51.320;12.340;2024-01-30T09:47:58;3.50;;;2.10;;
38037;SDS011;23843;51.320;12.340;2024-01-30T09:50:24;2.40;;;1.40;;
38037;SDS011;23843;51.320;12.340;2024-01-30T09:52:50;2.00;;;1.30;;
38037;SDS011;23843;51.320;12.340;2024-01-30T09:55:17;1.87;;;1.57;;
38037;SDS011;23843;51.320;12.340;2024-01-30T09:57:42;2.37;;;1.50;;
38037;SDS011;23843;51.320;12.340;2024-01-30T10:00:08;1.80;;;1.23;;
38037;SDS011;23843;51.320;12.340;2024-01-30T10:02:36;3.57;;;1.60;;
38037;SDS011;23843;51.320;12.340;2024-01-30T10:05:01;1.70;;;1.30;;
38037;SDS011;23843;51.320;12.340;2024-01-30T10:07:27;3.47;;;2.03;;
38037;SDS011;23843;51.320;12.340;2024-01-30T10:09:52;2.30;;;1.50;;
38037;SDS011;23843;51.320;12.340;2024-01-30T10:12:18;2.40;;;1.87;;
38037;SDS011;23843;51.320;12.340;2024-01-30T10:14:44;5.30;;;3.00;;
38037;SDS011;23843;51.320;12.340;2024-01-30T10:17:09;3.97;;;2.37;;
38037;SDS011;23843;51.320;12.340;2024-01-30T10:19:37;2.90;;;1.77;;
38037;SDS011;23843;51.320;12.340;2024-01-30T10:22:03;4.57;;;2.80;;
38037;SDS011;23843;51.320;12.340;2024-01-30T10:24:29;3.17;;;1.90;;
38037;SDS011;23843;51.320;12.340;2024-01-30T10:26:54;2.17;;;1.40;;
38037;SDS011;23843;51.320;12.340;2024-01-30T10:29:20;1.90;;;1.23;;
38037;SDS011;23843;51.320;12.340;2024-01-30T10:31:46;2.57;;;1.90;;
38037;SDS011;23843;51.320;12.340;2024-01-30T10:34:11;3.07;;;1.93;;
38037;SDS011;23843;51.320;12.340;2024-01-30T10:36:39;2.93;;;2.10;;
38037;SDS011;23843;51.320;12.340;2024-01-30T10:39:05;2.00;;;1.50;;
38037;SDS011;23843;51.320;12.340;2024-01-30T10:41:32;2.73;;;1.80;;
38037;SDS011;23843;51.320;12.340;2024-01-30T10:44:08;2.20;;;1.27;;
38037;SDS011;23843;51.320;12.340;2024-01-30T10:46:34;1.80;;;1.00;;
38037;SDS011;23843;51.320;12.340;2024-01-30T10:49:02;2.60;;;1.77;;
38037;SDS011;23843;51.320;12.340;2024-01-30T10:51:29;1.83;;;1.43;;
38037;SDS011;23843;51.320;12.340;2024-01-30T10:53:58;2.70;;;1.53;;
38037;SDS011;23843;51.320;12.340;2024-01-30T10:56:25;1.30;;;1.10;;
38037;SDS011;23843;51.320;12.340;2024-01-30T10:58:50;3.40;;;2.00;;
38037;SDS011;23843;51.320;12.340;2024-01-30T11:01:17;3.23;;;1.93;;
38037;SDS011;23843;51.320;12.340;2024-01-30T11:03:43;2.53;;;1.70;;
38037;SDS011;23843;51.320;12.340;2024-01-30T11:06:10;3.27;;;2.10;;
38037;SDS011;23843;51.320;12.340;2024-01-30T11:08:36;2.90;;;2.03;;
38037;SDS011;23843;51.320;12.340;2024-01-30T11:11:03;2.03;;;1.40;;
38037;SDS011;23843;51.320;12.340;2024-01-30T11:13:34;2.90;;;1.60;;
38037;SDS011;23843;51.320;12.340;2024-01-30T11:16:00;3.03;;;2.03;;
38037;SDS011;23843;51.320;12.340;2024-01-30T11:18:28;2.30;;;1.60;;
38037;SDS011;23843;51.320;12.340;2024-01-30T11:20:55;1.50;;;1.00;;
38037;SDS011;23843;51.320;12.340;2024-01-30T11:23:22;1.30;;;1.00;;
38037;SDS011;23843;51.320;12.340;2024-01-30T11:25:47;1.00;;;0.70;;
38037;SDS011;23843;51.320;12.340;2024-01-30T11:28:14;1.03;;;0.93;;
38037;SDS011;23843;51.320;12.340;2024-01-30T11:30:40;1.13;;;0.97;;
38037;SDS011;23843;51.320;12.340;2024-01-30T11:33:06;0.87;;;0.80;;
38037;SDS011;23843;51.320;12.340;2024-01-30T11:35:33;1.77;;;1.40;;
38037;SDS011;23843;51.320;12.340;2024-01-30T11:37:59;2.30;;;1.50;;
38037;SDS011;23843;51.320;12.340;2024-01-30T11:40:26;1.93;;;1.20;;
38037;SDS011;23843;51.320;12.340;2024-01-30T11:42:52;1.77;;;1.27;;
38037;SDS011;23843;51.320;12.340;2024-01-30T11:45:21;3.03;;;1.93;;
38037;SDS011;23843;51.320;12.340;2024-01-30T11:47:46;3.27;;;2.17;;
38037;SDS011;23843;51.320;12.340;2024-01-30T11:50:12;4.03;;;2.90;;
38037;SDS011;23843;51.320;12.340;2024-01-30T11:52:37;3.97;;;2.27;;
38037;SDS011;23843;51.320;12.340;2024-01-30T11:55:03;4.07;;;2.90;;
38037;SDS011;23843;51.320;12.340;2024-01-30T11:57:30;3.17;;;2.07;;
38037;SDS011;23843;51.320;12.340;2024-01-30T11:59:55;3.43;;;2.00;;
38037;SDS011;23843;51.320;12.340;2024-01-30T12:02:22;2.30;;;1.40;;
38037;SDS011;23843;51.320;12.340;2024-01-30T12:04:47;2.70;;;1.63;;
38037;SDS011;23843;51.320;12.340;2024-01-30T12:07:13;2.00;;;1.30;;
38037;SDS011;23843;51.320;12.340;2024-01-30T12:09:39;1.90;;;1.10;;
38037;SDS011;23843;51.320;12.340;2024-01-30T12:12:04;1.80;;;1.40;;
38037;SDS011;23843;51.320;12.340;2024-01-30T12:14:32;2.07;;;1.07;;
38037;SDS011;23843;51.320;12.340;2024-01-30T12:16:58;2.03;;;1.20;;
38037;SDS011;23843;51.320;12.340;2024-01-30T12:19:24;1.30;;;1.10;;
38037;SDS011;23843;51.320;12.340;2024-01-30T12:21:53;1.00;;;0.80;;
38037;SDS011;23843;51.320;12.340;2024-01-30T12:24:19;1.73;;;1.27;;
38037;SDS011;23843;51.320;12.340;2024-01-30T12:26:45;3.47;;;1.50;;
38037;SDS011;23843;51.320;12.340;2024-01-30T12:29:10;2.07;;;1.70;;
38037;SDS011;23843;51.320;12.340;2024-01-30T12:31:36;2.23;;;1.50;;
38037;SDS011;23843;51.320;12.340;2024-01-30T12:34:01;1.73;;;1.27;;
38037;SDS011;23843;51.320;12.340;2024-01-30T12:36:28;3.13;;;1.80;;
38037;SDS011;23843;51.320;12.340;2024-01-30T12:38:54;2.67;;;1.50;;
38037;SDS011;23843;51.320;12.340;2024-01-30T12:41:19;1.63;;;1.47;;
38037;SDS011;23843;51.320;12.340;2024-01-30T12:43:45;2.27;;;1.40;;
38037;SDS011;23843;51.320;12.340;2024-01-30T12:46:10;2.17;;;1.30;;
38037;SDS011;23843;51.320;12.340;2024-01-30T12:48:36;2.83;;;1.60;;
38037;SDS011;23843;51.320;12.340;2024-01-30T12:51:01;2.20;;;1.50;;
38037;SDS011;23843;51.320;12.340;2024-01-30T12:53:28;2.00;;;1.50;;
38037;SDS011;23843;51.320;12.340;2024-01-30T12:55:54;1.77;;;1.50;;
38037;SDS011;23843;51.320;12.340;2024-01-30T12:58:19;2.23;;;1.43;;
38037;SDS011;23843;51.320;12.340;2024-01-30T13:00:45;1.70;;;1.20;;
38037;SDS011;23843;51.320;12.340;2024-01-30T13:03:10;2.07;;;1.53;;
38037;SDS011;23843;51.320;12.340;2024-01-30T13:05:36;2.17;;;1.50;;
38037;SDS011;23843;51.320;12.340;2024-01-30T13:08:02;3.17;;;1.57;;
38037;SDS011;23843;51.320;12.340;2024-01-30T13:10:29;3.03;;;2.10;;
38037;SDS011;23843;51.320;12.340;2024-01-30T13:12:54;3.07;;;1.83;;
38037;SDS011;23843;51.320;12.340;2024-01-30T13:15:20;2.63;;;1.93;;
38037;SDS011;23843;51.320;12.340;2024-01-30T13:17:45;2.87;;;1.83;;
38037;SDS011;23843;51.320;12.340;2024-01-30T13:20:11;4.20;;;1.97;;
38037;SDS011;23843;51.320;12.340;2024-01-30T13:22:36;2.93;;;2.23;;
38037;SDS011;23843;51.320;12.340;2024-01-30T13:25:02;2.00;;;1.40;;
38037;SDS011;23843;51.320;12.340;2024-01-30T13:27:28;2.90;;;1.43;;
38037;SDS011;23843;51.320;12.340;2024-01-30T13:29:54;2.77;;;1.80;;
38037;SDS011;23843;51.320;12.340;2024-01-30T13:32:19;4.83;;;2.80;;
38037;SDS011;23843;51.320;12.340;2024-01-30T13:34:45;3.10;;;1.90;;
38037;SDS011;23843;51.320;12.340;2024-01-30T13:37:10;2.80;;;1.70;;
38037;SDS011;23843;51.320;12.340;2024-01-30T13:39:36;1.80;;;1.20;;
38037;SDS011;23843;51.320;12.340;2024-01-30T13:42:01;4.60;;;2.20;;
38037;SDS011;23843;51.320;12.340;2024-01-30T13:44:28;3.40;;;1.97;;
38037;SDS011;23843;51.320;12.340;2024-01-30T13:46:54;3.13;;;1.87;;
38037;SDS011;23843;51.320;12.340;2024-01-30T13:49:19;1.70;;;1.60;;
38037;SDS011;23843;51.320;12.340;2024-01-30T13:51:44;2.43;;;1.43;;
38037;SDS011;23843;51.320;12.340;2024-01-30T13:54:10;3.43;;;1.70;;
38037;SDS011;23843;51.320;12.340;2024-01-30T13:56:35;4.50;;;2.30;;
38037;SDS011;23843;51.320;12.340;2024-01-30T13:59:01;3.57;;;2.20;;
38037;SDS011;23843;51.320;12.340;2024-01-30T14:01:28;2.77;;;1.70;;
38037;SDS011;23843;51.320;12.340;2024-01-30T14:03:53;3.03;;;1.80;;
38037;SDS011;23843;51.320;12.340;2024-01-30T14:06:18;1.93;;;1.43;;
38037;SDS011;23843;51.320;12.340;2024-01-30T14:08:44;2.00;;;1.50;;
38037;SDS011;23843;51.320;12.340;2024-01-30T14:11:09;3.83;;;1.80;;
38037;SDS011;23843;51.320;12.340;2024-01-30T14:13:35;3.07;;;2.30;;
38037;SDS011;23843;51.320;12.340;2024-01-30T14:16:00;2.67;;;1.73;;
38037;SDS011;23843;51.320;12.340;2024-01-30T14:18:27;3.00;;;1.60;;
38037;SDS011;23843;51.320;12.340;2024-01-30T14:20:53;2.17;;;1.40;;
38037;SDS011;23843;51.320;12.340;2024-01-30T14:23:18;2.40;;;1.63;;
38037;SDS011;23843;51.320;12.340;2024-01-30T14:25:44;2.47;;;1.70;;